createdAt,value
2023-02-11T00:00:05.867Z,51.46
2023-02-11T00:02:34.854Z,51.51
2023-02-11T00:05:04.025Z,51.61
2023-02-11T00:07:32.925Z,51.36
2023-02-11T00:10:02.341Z,51.26
2023-02-11T00:12:31.044Z,51.50
2023-02-11T00:14:59.714Z,51.40
2023-02-11T00:17:28.419Z,51.81
2023-02-11T00:19:57.077Z,51.76
2023-02-11T00:22:25.661Z,51.43
2023-02-11T00:24:54.382Z,51.48
2023-02-11T00:27:23.265Z,51.39
2023-02-11T00:29:52.129Z,51.67
2023-02-11T00:32:20.754Z,51.79
2023-02-11T00:34:52.619Z,51.83
2023-02-11T00:37:21.956Z,51.76
2023-02-11T00:39:50.628Z,51.77
2023-02-11T00:42:22.316Z,51.82
2023-02-11T00:44:50.976Z,51.70
2023-02-11T00:47:19.776Z,51.60
2023-02-11T00:49:48.490Z,51.97
2023-02-11T00:52:17.437Z,51.96
2023-02-11T00:54:46.284Z,51.79
2023-02-11T00:57:14.913Z,51.69
2023-02-11T00:59:43.241Z,51.94
2023-02-11T01:02:11.857Z,51.97
2023-02-11T01:04:40.575Z,51.96
2023-02-11T01:07:09.437Z,52.00
2023-02-11T01:09:38.866Z,51.91
2023-02-11T01:12:07.661Z,51.98
2023-02-11T01:14:36.388Z,52.13
2023-02-11T01:17:05.510Z,52.22
2023-02-11T01:19:34.399Z,52.01
2023-02-11T01:22:03.390Z,52.22
2023-02-11T01:24:31.965Z,51.90
2023-02-11T01:27:00.801Z,52.38
2023-02-11T01:29:29.626Z,52.29
2023-02-11T01:31:58.567Z,52.33
2023-02-11T01:34:27.281Z,52.21
2023-02-11T01:36:57.617Z,52.20
2023-02-11T01:39:26.239Z,52.41
2023-02-11T01:41:55.372Z,52.63
2023-02-11T01:44:27.771Z,52.49
2023-02-11T01:46:56.518Z,52.44
2023-02-11T01:49:27.251Z,52.40
2023-02-11T01:51:56.809Z,52.48
2023-02-11T01:54:45.085Z,52.45
2023-02-11T01:57:24.389Z,52.71
2023-02-11T01:59:58.855Z,52.61
2023-02-11T02:02:29.904Z,52.45
2023-02-11T02:04:59.840Z,52.64
2023-02-11T02:07:30.811Z,52.54
2023-02-11T02:10:00.610Z,52.37
2023-02-11T02:12:29.072Z,52.48
2023-02-11T02:15:15.343Z,52.60
2023-02-11T02:17:45.362Z,52.62
2023-02-11T02:20:34.078Z,52.62
2023-02-11T02:23:25.746Z,52.41
2023-02-11T02:26:11.334Z,52.45
2023-02-11T02:28:55.458Z,52.24
2023-02-11T02:31:26.762Z,52.60
2023-02-11T02:33:56.401Z,52.71
2023-02-11T02:36:31.456Z,52.68
2023-02-11T02:39:01.046Z,52.73
2023-02-11T02:41:30.130Z,52.61
2023-02-11T02:43:58.841Z,52.69
2023-02-11T02:46:28.177Z,52.87
2023-02-11T02:48:57.298Z,52.66
2023-02-11T02:51:35.550Z,52.77
2023-02-11T02:54:10.672Z,52.70
2023-02-11T02:56:40.060Z,52.74
2023-02-11T02:59:15.963Z,52.58
2023-02-11T03:01:47.256Z,52.71
2023-02-11T03:04:18.199Z,52.80
2023-02-11T03:06:48.436Z,52.97
2023-02-11T03:09:19.046Z,53.13
2023-02-11T03:11:47.870Z,52.99
2023-02-11T03:14:17.347Z,52.92
2023-02-11T03:16:46.113Z,53.10
2023-02-11T03:19:15.680Z,53.21
2023-02-11T03:21:44.469Z,53.15
2023-02-11T03:24:14.245Z,53.13
2023-02-11T03:26:44.719Z,53.15
2023-02-11T03:29:14.651Z,53.21
2023-02-11T03:31:44.926Z,53.35
2023-02-11T03:34:15.108Z,53.41
2023-02-11T03:36:45.446Z,53.31
2023-02-11T03:39:14.667Z,53.23
2023-02-11T03:41:43.398Z,53.39
2023-02-11T03:44:12.053Z,53.26
2023-02-11T03:46:40.737Z,53.30
2023-02-11T03:49:10.443Z,53.30
2023-02-11T03:51:39.107Z,53.52
2023-02-11T03:54:09.742Z,53.42
2023-02-11T03:56:39.481Z,53.46
2023-02-11T03:59:08.668Z,53.45
2023-02-11T04:01:37.470Z,53.58
2023-02-11T04:04:06.382Z,53.31
2023-02-11T04:06:34.996Z,53.49
2023-02-11T04:09:03.675Z,53.58
2023-02-11T04:11:32.242Z,53.48
2023-02-11T04:14:01.879Z,53.42
2023-02-11T04:16:30.755Z,53.40
2023-02-11T04:19:00.390Z,53.36
2023-02-11T04:21:29.009Z,53.54
2023-02-11T04:23:57.768Z,53.46
2023-02-11T04:26:26.462Z,53.52
2023-02-11T04:28:55.287Z,53.57
2023-02-11T04:31:24.076Z,53.66
2023-02-11T04:33:52.992Z,53.72
2023-02-11T04:36:21.520Z,53.72
2023-02-11T04:38:50.265Z,53.60
2023-02-11T04:41:19.039Z,53.54
2023-02-11T04:43:47.697Z,53.42
2023-02-11T04:46:16.349Z,53.53
2023-02-11T04:48:45.228Z,53.61
2023-02-11T04:51:14.087Z,53.45
2023-02-11T04:53:42.908Z,53.70
2023-02-11T04:56:11.520Z,53.57
2023-02-11T04:58:40.032Z,53.68
2023-02-11T05:01:08.881Z,53.80
2023-02-11T05:03:37.805Z,53.88
2023-02-11T05:06:07.362Z,53.74
2023-02-11T05:08:36.023Z,53.96
2023-02-11T05:11:04.721Z,53.55
2023-02-11T05:13:33.450Z,53.44
2023-02-11T05:16:02.212Z,53.55
2023-02-11T05:18:30.966Z,53.60
2023-02-11T05:20:59.576Z,53.71
2023-02-11T05:23:28.220Z,53.88
2023-02-11T05:25:57.018Z,53.93
2023-02-11T05:28:25.755Z,53.84
2023-02-11T05:30:54.573Z,53.78
2023-02-11T05:33:23.141Z,53.90
2023-02-11T05:35:52.086Z,53.85
2023-02-11T05:38:21.176Z,53.63
2023-02-11T05:40:50.040Z,53.55
2023-02-11T05:43:18.575Z,53.86
2023-02-11T05:45:47.378Z,53.80
2023-02-11T05:48:15.900Z,53.85
2023-02-11T05:50:44.860Z,53.59
2023-02-11T05:53:13.586Z,53.78
2023-02-11T05:55:42.501Z,53.68
2023-02-11T05:58:11.152Z,53.66
2023-02-11T06:00:39.730Z,53.79
2023-02-11T06:03:08.569Z,53.77
2023-02-11T06:05:37.346Z,53.67
2023-02-11T06:08:06.024Z,53.78
2023-02-11T06:10:34.645Z,53.64
2023-02-11T06:13:03.263Z,53.58
2023-02-11T06:15:31.999Z,53.79
2023-02-11T06:18:00.832Z,53.68
2023-02-11T06:20:29.668Z,53.82
2023-02-11T06:22:58.189Z,53.88
2023-02-11T06:25:26.707Z,53.71
2023-02-11T06:27:55.696Z,53.89
2023-02-11T06:30:24.520Z,53.97
2023-02-11T06:32:54.258Z,54.01
2023-02-11T06:35:22.795Z,53.94
2023-02-11T06:37:53.348Z,54.09
2023-02-11T06:40:22.043Z,54.03
2023-02-11T06:42:50.998Z,53.90
2023-02-11T06:45:20.055Z,54.14
2023-02-11T06:47:48.698Z,54.03
2023-02-11T06:50:17.189Z,54.24
2023-02-11T06:52:45.890Z,54.33
2023-02-11T06:55:15.125Z,54.13
2023-02-11T06:57:45.339Z,53.99
2023-02-11T07:00:15.126Z,54.09
2023-02-11T07:02:43.876Z,54.13
2023-02-11T07:05:12.652Z,54.27
2023-02-11T07:07:41.519Z,54.16
2023-02-11T07:10:10.375Z,54.40
2023-02-11T07:12:39.023Z,54.40
2023-02-11T07:15:08.410Z,54.21
2023-02-11T07:17:38.606Z,54.18
2023-02-11T07:20:12.027Z,54.00
2023-02-11T07:22:40.932Z,54.20
2023-02-11T07:25:09.699Z,54.25
2023-02-11T07:28:15.445Z,54.36
2023-02-11T07:30:44.307Z,54.41
2023-02-11T07:33:13.081Z,54.41
2023-02-11T07:35:42.789Z,54.49
2023-02-11T07:38:11.356Z,54.55
2023-02-11T07:40:39.989Z,54.49
2023-02-11T07:43:08.910Z,54.49
2023-02-11T07:45:39.235Z,54.42
2023-02-11T07:48:07.893Z,54.42
2023-02-11T07:50:36.462Z,54.42
2023-02-11T07:53:05.045Z,54.38
2023-02-11T07:55:33.885Z,54.38
2023-02-11T07:58:02.788Z,54.18
2023-02-11T08:00:31.637Z,54.21
2023-02-11T08:03:00.345Z,54.48
2023-02-11T08:05:29.836Z,54.38
2023-02-11T08:07:58.460Z,54.49
2023-02-11T08:10:27.343Z,54.39
2023-02-11T08:12:56.018Z,54.48
2023-02-11T08:15:24.711Z,54.68
2023-02-11T08:17:53.277Z,54.63
2023-02-11T08:20:22.000Z,54.76
2023-02-11T08:22:50.744Z,54.79
2023-02-11T08:25:19.514Z,54.44
2023-02-11T08:27:48.018Z,54.54
2023-02-11T08:30:16.762Z,54.73
2023-02-11T08:32:45.805Z,54.75
2023-02-11T08:35:14.558Z,54.61
2023-02-11T08:37:43.268Z,54.64
2023-02-11T08:40:12.075Z,54.72
2023-02-11T08:42:40.684Z,54.56
2023-02-11T08:45:10.398Z,54.65
2023-02-11T08:47:39.235Z,54.54
2023-02-11T08:50:08.511Z,54.54
2023-02-11T08:52:37.281Z,54.57
2023-02-11T08:55:06.665Z,54.39
2023-02-11T08:57:35.380Z,54.36
2023-02-11T09:00:05.009Z,54.35
2023-02-11T09:02:33.980Z,54.51
2023-02-11T09:05:02.711Z,54.69
2023-02-11T09:07:31.248Z,54.57
2023-02-11T09:09:59.897Z,54.63
2023-02-11T09:12:28.674Z,54.84
2023-02-11T09:14:58.655Z,54.89
2023-02-11T09:17:27.505Z,54.79
2023-02-11T09:19:56.079Z,54.66
2023-02-11T09:22:24.823Z,54.56
2023-02-11T09:24:53.692Z,54.67
2023-02-11T09:27:22.415Z,54.38
2023-02-11T09:29:51.336Z,54.41
2023-02-11T09:32:19.876Z,54.33
2023-02-11T09:34:48.405Z,54.36
2023-02-11T09:37:17.276Z,54.23
2023-02-11T09:39:46.085Z,54.26
2023-02-11T09:42:31.822Z,54.57
2023-02-11T09:45:01.640Z,54.59
2023-02-11T09:47:31.221Z,54.56
2023-02-11T09:50:00.700Z,54.65
2023-02-11T09:52:37.135Z,54.68
2023-02-11T09:55:07.361Z,54.71
2023-02-11T09:57:36.872Z,54.51
2023-02-11T10:00:16.510Z,54.35
2023-02-11T10:02:48.559Z,54.40
2023-02-11T10:05:23.309Z,54.28
2023-02-11T10:07:56.058Z,54.89
2023-02-11T10:10:31.812Z,54.52
2023-02-11T10:13:08.270Z,54.51
2023-02-11T10:15:41.552Z,54.59
2023-02-11T10:18:34.420Z,54.28
2023-02-11T10:21:09.136Z,53.95
2023-02-11T10:23:38.342Z,54.20
2023-02-11T10:26:10.924Z,53.73
2023-02-11T10:28:43.098Z,53.26
2023-02-11T10:31:15.425Z,53.24
2023-02-11T10:33:46.024Z,53.59
2023-02-11T10:36:17.318Z,53.12
2023-02-11T10:38:45.902Z,53.24
2023-02-11T10:41:18.249Z,52.98
2023-02-11T10:43:49.887Z,52.73
2023-02-11T10:46:19.415Z,52.34
2023-02-11T10:48:51.042Z,52.43
2023-02-11T10:51:23.121Z,52.10
2023-02-11T10:53:59.963Z,52.40
2023-02-11T10:56:28.624Z,52.09
2023-02-11T10:59:01.068Z,51.91
2023-02-11T11:01:46.510Z,52.18
2023-02-11T11:04:37.416Z,52.26
2023-02-11T11:07:13.972Z,52.08
2023-02-11T11:09:47.604Z,51.67
2023-02-11T11:12:30.006Z,51.63
2023-02-11T11:15:01.089Z,51.67
2023-02-11T11:17:33.075Z,51.46
2023-02-11T11:20:16.036Z,51.21
2023-02-11T11:22:46.201Z,51.23
2023-02-11T11:25:26.153Z,51.12
2023-02-11T11:27:55.530Z,50.89
2023-02-11T11:30:25.423Z,50.66
2023-02-11T11:32:54.621Z,49.52
2023-02-11T11:35:25.204Z,49.39
2023-02-11T11:37:55.013Z,49.75
2023-02-11T11:40:26.024Z,50.07
2023-02-11T11:43:06.407Z,50.13
2023-02-11T11:45:35.598Z,49.95
2023-02-11T11:48:06.169Z,49.65
2023-02-11T11:50:35.425Z,49.71
2023-02-11T11:53:06.549Z,49.79
2023-02-11T11:55:37.273Z,49.27
2023-02-11T11:58:07.192Z,49.13
2023-02-11T12:00:37.364Z,48.16
2023-02-11T12:03:20.108Z,49.03
2023-02-11T12:05:51.213Z,49.16
2023-02-11T12:08:22.251Z,48.41
2023-02-11T12:10:57.716Z,48.13
2023-02-11T12:13:31.710Z,47.96
2023-02-11T12:16:02.968Z,48.35
2023-02-11T12:18:38.242Z,48.68
2023-02-11T12:21:15.126Z,48.67
2023-02-11T12:23:49.608Z,48.44
2023-02-11T12:26:19.300Z,48.39
2023-02-11T12:28:55.737Z,48.60
2023-02-11T12:31:31.100Z,48.47
2023-02-11T12:34:04.806Z,48.58
2023-02-11T12:36:37.779Z,48.11
2023-02-11T12:39:10.228Z,48.04
2023-02-11T12:42:01.781Z,48.23
2023-02-11T12:44:33.141Z,48.01
2023-02-11T12:47:03.450Z,47.47
2023-02-11T12:49:44.716Z,47.18
2023-02-11T12:52:25.716Z,47.60
2023-02-11T12:54:55.056Z,47.20
2023-02-11T12:57:25.407Z,47.25
2023-02-11T12:59:56.051Z,47.32
2023-02-11T13:02:27.488Z,47.24
2023-02-11T13:04:57.098Z,47.73
2023-02-11T13:07:31.462Z,47.12
2023-02-11T13:10:09.821Z,47.00
2023-02-11T13:12:57.093Z,46.49
2023-02-11T13:15:26.220Z,46.58
2023-02-11T13:17:57.372Z,46.36
2023-02-11T13:20:28.693Z,46.44
2023-02-11T13:22:58.996Z,46.73
2023-02-11T13:25:30.029Z,46.05
2023-02-11T13:28:00.031Z,46.25
2023-02-11T13:30:32.668Z,46.01
2023-02-11T13:33:16.966Z,45.83
2023-02-11T13:35:46.241Z,46.11
2023-02-11T13:38:18.993Z,46.17
2023-02-11T13:40:49.329Z,46.25
2023-02-11T13:43:20.479Z,45.75
2023-02-11T13:45:49.345Z,45.40
2023-02-11T13:48:23.590Z,45.71
2023-02-11T13:51:04.560Z,45.75
2023-02-11T13:53:47.443Z,46.21
2023-02-11T13:56:28.361Z,46.36
2023-02-11T13:59:01.791Z,46.00
2023-02-11T14:01:42.789Z,45.50
2023-02-11T14:04:40.020Z,45.56
2023-02-11T14:07:41.317Z,45.40
2023-02-11T14:10:24.173Z,45.72
2023-02-11T14:13:05.734Z,46.11
2023-02-11T14:15:39.916Z,46.00
2023-02-11T14:18:25.545Z,45.75
2023-02-11T14:20:55.776Z,45.88
2023-02-11T14:23:29.710Z,45.98
2023-02-11T14:26:04.005Z,45.50
2023-02-11T14:28:34.604Z,45.63
2023-02-11T14:34:07.007Z,45.97
2023-02-11T14:36:46.121Z,45.66
2023-02-11T14:39:17.549Z,45.84
2023-02-11T14:41:46.518Z,46.02
2023-02-11T14:44:28.812Z,45.90
2023-02-11T14:46:57.676Z,45.74
2023-02-11T14:49:29.145Z,45.52
2023-02-11T14:51:58.957Z,45.86
2023-02-11T14:54:29.815Z,45.73
2023-02-11T14:57:09.267Z,45.75
2023-02-11T14:59:39.818Z,45.41
2023-02-11T15:02:21.551Z,45.56
2023-02-11T15:04:56.034Z,45.67
2023-02-11T15:07:24.664Z,45.74
2023-02-11T15:09:54.359Z,45.62
2023-02-11T15:12:25.775Z,45.76
2023-02-11T15:14:55.588Z,45.92
2023-02-11T15:17:24.893Z,45.82
2023-02-11T15:19:54.424Z,45.95
2023-02-11T15:22:24.227Z,46.09
2023-02-11T15:25:00.796Z,45.70
2023-02-11T15:27:36.131Z,45.71
2023-02-11T15:30:09.452Z,45.83
2023-02-11T15:32:40.972Z,45.63
2023-02-11T15:35:13.814Z,45.72
2023-02-11T15:37:42.841Z,45.65
2023-02-11T15:40:15.171Z,45.52
2023-02-11T15:42:55.011Z,45.75
2023-02-11T15:45:28.383Z,45.64
2023-02-11T15:48:18.362Z,45.69
2023-02-11T15:50:50.716Z,45.77
2023-02-11T15:53:24.206Z,45.80
2023-02-11T15:55:53.883Z,45.76
2023-02-11T15:58:22.689Z,45.87
2023-02-11T16:00:54.463Z,46.01
2023-02-11T16:03:24.376Z,45.80
2023-02-11T16:05:55.913Z,45.97
2023-02-11T16:08:25.805Z,45.74
2023-02-11T16:10:57.969Z,45.89
2023-02-11T16:13:29.118Z,46.00
2023-02-11T16:22:28.096Z,46.17
2023-02-11T16:25:00.794Z,45.95
2023-02-11T16:27:45.804Z,46.14
2023-02-11T16:33:14.800Z,46.32
2023-02-11T16:35:56.700Z,46.17
2023-02-11T16:38:29.167Z,45.97
2023-02-11T16:41:14.745Z,45.92
2023-02-11T16:43:50.861Z,46.09
2023-02-11T16:46:25.312Z,46.01
2023-02-11T16:49:03.219Z,46.10
2023-02-11T16:51:48.687Z,46.21
2023-02-11T16:57:24.176Z,46.33
2023-02-11T16:59:55.823Z,46.29
2023-02-11T17:02:28.081Z,46.27
2023-02-11T17:04:59.587Z,46.09
2023-02-11T17:07:31.100Z,46.30
2023-02-11T17:10:03.914Z,46.40
2023-02-11T17:12:43.091Z,46.49
2023-02-11T17:15:13.911Z,46.63
2023-02-11T17:17:46.136Z,46.69
2023-02-11T17:20:23.613Z,46.70
2023-02-11T17:22:59.916Z,46.85
2023-02-11T17:25:40.029Z,46.77
2023-02-11T17:28:43.249Z,47.18
2023-02-11T17:31:19.882Z,46.87
2023-02-11T17:33:53.764Z,47.18
2023-02-11T17:36:29.369Z,47.20
2023-02-11T17:39:01.186Z,47.23
2023-02-11T17:41:32.314Z,47.40
2023-02-11T17:44:10.203Z,47.41
2023-02-11T17:46:44.295Z,47.18
2023-02-11T17:49:17.108Z,47.49
2023-02-11T17:51:48.331Z,47.62
2023-02-11T17:54:20.530Z,47.40
2023-02-11T17:56:58.416Z,47.63
2023-02-11T17:59:35.650Z,47.82
2023-02-11T18:02:07.029Z,47.96
2023-02-11T18:04:48.045Z,47.77
2023-02-11T18:07:56.011Z,47.78
2023-02-11T18:10:55.312Z,48.00
2023-02-11T18:13:59.016Z,47.92
2023-02-11T18:16:45.809Z,47.93
2023-02-11T18:19:25.914Z,48.01
2023-02-11T18:22:16.525Z,48.32
2023-02-11T18:24:53.996Z,48.46
2023-02-11T18:27:36.666Z,48.36
2023-02-11T18:30:24.124Z,48.40
2023-02-11T18:33:02.617Z,48.41
2023-02-11T18:35:38.481Z,48.53
2023-02-11T18:41:10.029Z,48.36
2023-02-11T18:44:03.468Z,48.62
2023-02-11T18:54:53.174Z,48.41
2023-02-11T18:56:16.720Z,48.38
2023-02-11T19:00:40.681Z,48.79
2023-02-11T19:03:18.031Z,48.47
2023-02-11T19:09:31.662Z,48.73
2023-02-11T19:15:29.004Z,48.76
2023-02-11T19:21:43.389Z,48.65
2023-02-11T19:41:05.311Z,48.95
2023-02-11T20:27:29.208Z,49.36
2023-02-11T20:29:59.891Z,49.57
2023-02-11T20:32:32.823Z,49.52
2023-02-11T20:35:04.065Z,49.74
2023-02-11T20:37:36.122Z,49.41
2023-02-11T20:40:07.806Z,49.82
2023-02-11T20:42:42.164Z,49.73
2023-02-11T20:45:27.038Z,50.12
2023-02-11T20:48:13.128Z,50.07
2023-02-11T20:50:57.773Z,49.73
2023-02-11T20:53:28.767Z,49.88
2023-02-11T20:55:59.596Z,50.13
2023-02-11T20:58:30.725Z,50.01
2023-02-11T21:01:08.992Z,49.85
2023-02-11T21:03:39.833Z,50.08
2023-02-11T21:06:12.060Z,50.19
2023-02-11T21:08:46.159Z,50.26
2023-02-11T21:11:19.713Z,50.29
2023-02-11T21:13:51.252Z,49.88
2023-02-11T21:16:22.323Z,50.19
2023-02-11T21:18:53.459Z,50.20
2023-02-11T21:21:24.395Z,50.30
2023-02-11T21:23:56.305Z,50.58
2023-02-11T21:26:27.435Z,50.42
2023-02-11T21:28:58.546Z,50.51
2023-02-11T21:31:30.783Z,50.76
2023-02-11T21:34:01.434Z,50.72
2023-02-11T21:36:32.634Z,50.58
2023-02-11T21:39:04.436Z,50.89
2023-02-11T21:41:35.179Z,50.88
2023-02-11T21:44:05.902Z,50.65
2023-02-11T21:46:37.721Z,50.82
2023-02-11T21:49:09.043Z,50.64
2023-02-11T21:51:40.453Z,50.89
2023-02-11T21:54:11.609Z,50.88
2023-02-11T21:56:42.381Z,50.91
2023-02-11T21:59:13.731Z,51.30
2023-02-11T22:01:51.781Z,51.08
2023-02-11T22:04:26.168Z,50.96
2023-02-11T22:06:57.775Z,51.22
2023-02-11T22:09:28.704Z,51.08
2023-02-11T22:12:01.289Z,51.19
2023-02-11T22:14:46.438Z,51.32
2023-02-11T22:17:17.637Z,50.98
2023-02-11T22:19:48.976Z,50.98
2023-02-11T22:22:25.524Z,51.25
2023-02-11T22:27:56.534Z,51.44
2023-02-11T22:30:27.599Z,51.32
2023-02-11T22:33:00.475Z,51.71
2023-02-11T22:35:31.628Z,51.51
2023-02-11T22:38:04.724Z,51.24
2023-02-11T22:40:37.086Z,51.60
2023-02-11T22:43:08.052Z,51.22
2023-02-11T22:45:39.117Z,51.56
2023-02-11T22:48:09.997Z,51.55
2023-02-11T22:50:40.664Z,51.53
2023-02-11T22:53:11.520Z,51.57
2023-02-11T22:55:42.309Z,51.79
2023-02-11T22:58:13.072Z,51.73
2023-02-11T23:00:44.036Z,51.80
2023-02-11T23:03:15.740Z,51.77
2023-02-11T23:05:46.616Z,51.63
2023-02-11T23:08:17.479Z,51.92
2023-02-11T23:10:49.480Z,52.01
2023-02-11T23:13:20.299Z,51.97
2023-02-11T23:15:51.068Z,52.13
2023-02-11T23:18:21.938Z,52.24
2023-02-11T23:20:52.795Z,52.11
2023-02-11T23:23:23.557Z,52.33
2023-02-11T23:25:54.785Z,52.18
2023-02-11T23:28:25.965Z,52.51
2023-02-11T23:30:56.847Z,52.34
2023-02-11T23:33:27.784Z,52.51
2023-02-11T23:35:58.611Z,52.56
2023-02-11T23:38:29.323Z,52.26
2023-02-11T23:41:00.064Z,52.60
2023-02-11T23:43:30.928Z,52.79
2023-02-11T23:46:01.743Z,52.53
2023-02-11T23:48:32.750Z,52.63
2023-02-11T23:51:03.852Z,52.65
2023-02-11T23:53:34.543Z,52.30
2023-02-11T23:56:08.901Z,52.67
2023-02-11T23:58:39.674Z,52.83
